Sevenpoints, Pennsylvania
Current Conditions -  °F | °C
As of 9:53 AM on Wednesday 22 Oct 2014 (Local Time) from KSEG Reporting Station
Light Rain Light Rain  
Wind Chill: 53°   Ceiling: 2900
Heat Index: 53°   Visibility: 10mi
Dew Point: 47°   Wind: 14mph
Humidity: 80%   Direction: 350°N
Pressure: 30.02"   Gusts: NA
Location:  40.83°N, 76.761°W
Report Text: KSEG 221353Z AUTO 35012KT 10SM -RA OVC029 12/08 A3002 RMK AO2 RAB21 SLP166 P0000 T01170083
Loading
Personal Weather Stations






























Interactive Weather Map
Tropical Storm Tracking
New forecast layout! Learn more

10-Day Weather Forecast

Advertisements
Track Severe Weather on mobile